Time;durP1;ratioP1;P1;durP2;ratioP2;P2;SDS_P1;SDS_P2;PMS_P1;PMS_P2;Temp;Humidity;BMP_temperature;BMP_pressure;BME280_temperature;BME280_humidity;BME280_pressure;Samples;Min_cycle;Max_cycle;Signal;HPM_P1;HPM_P2
2023/03/06 00:00:01;;;;;;;18.80;10.40;;;5.00;77.50;;;4.81;52.52;94399.06;5074645;28;20479;-55
2023/03/06 00:02:28;;;;;;;15.17;9.60;;;5.00;77.70;;;4.81;52.57;94393.03;5068616;28;20470;-59
2023/03/06 00:04:55;;;;;;;14.40;9.33;;;5.10;78.00;;;4.82;52.70;94392.94;5076505;28;21012;-56
2023/03/06 00:07:23;;;;;;;16.00;9.10;;;5.10;78.20;;;4.84;52.78;94398.03;5073420;28;20529;-57
2023/03/06 00:09:50;;;;;;;13.50;9.63;;;5.10;78.20;;;4.80;52.83;94383.56;5069413;28;20462;-58
2023/03/06 00:12:17;;;;;;;12.83;9.30;;;5.00;78.10;;;4.79;52.79;94392.34;5074413;28;21009;-58
2023/03/06 00:14:44;;;;;;;20.17;9.70;;;5.00;78.50;;;4.77;53.12;94382.03;5073818;28;20986;-58
2023/03/06 00:17:13;;;;;;;64.63;26.83;;;5.00;78.80;;;4.75;52.96;94383.09;5069050;28;20976;-55
2023/03/06 00:19:40;;;;;;;17.30;10.00;;;5.00;78.60;;;4.71;52.92;94381.66;5070011;28;20490;-58
2023/03/06 00:22:08;;;;;;;18.80;10.27;;;5.00;78.90;;;4.70;53.32;94387.81;5075243;28;20477;-56
2023/03/06 00:24:35;;;;;;;13.27;9.27;;;4.90;79.50;;;4.69;52.86;94386.16;5070666;28;20467;-59
2023/03/06 00:27:03;;;;;;;15.53;9.97;;;4.90;79.40;;;4.66;53.11;94389.81;5063072;28;20487;-56
2023/03/06 00:29:30;;;;;;;21.73;9.67;;;4.90;79.50;;;4.63;53.29;94384.84;5076418;28;20461;-57
2023/03/06 00:31:57;;;;;;;12.33;8.60;;;4.90;79.80;;;4.63;53.30;94385.69;5072909;28;20482;-58
2023/03/06 00:34:26;;;;;;;14.20;9.77;;;4.90;80.00;;;4.64;53.57;94382.13;5069989;28;20453;-59
2023/03/06 00:36:53;;;;;;;17.37;9.73;;;4.90;80.10;;;4.65;53.74;94386.38;5077663;28;20951;-55
2023/03/06 00:39:20;;;;;;;12.47;9.47;;;4.90;80.70;;;4.65;53.84;94390.78;5074475;28;20486;-56
2023/03/06 00:41:48;;;;;;;14.23;8.80;;;4.90;80.60;;;4.70;53.54;94385.22;5067586;28;20474;-58
2023/03/06 00:44:15;;;;;;;17.73;10.30;;;4.90;80.60;;;4.74;53.65;94386.63;5068082;28;20466;-57
2023/03/06 00:46:42;;;;;;;18.07;9.00;;;4.90;80.80;;;4.77;53.53;94382.03;5076325;28;20481;-58
2023/03/06 00:49:09;;;;;;;12.87;9.10;;;5.00;80.70;;;4.79;53.19;94379.31;5067718;28;20955;-56
2023/03/06 00:51:38;;;;;;;18.23;10.20;;;5.00;80.60;;;4.81;53.59;94374.81;5067407;28;20470;-57
2023/03/06 00:54:05;;;;;;;11.80;9.20;;;5.00;80.60;;;4.82;53.50;94379.91;5076519;28;20855;-56
2023/03/06 00:56:33;;;;;;;15.30;9.63;;;5.00;81.00;;;4.83;53.45;94384.19;5062244;28;20536;-58
2023/03/06 00:59:00;;;;;;;14.00;9.30;;;5.00;80.70;;;4.85;53.16;94379.66;5064010;28;20506;-58
2023/03/06 01:01:28;;;;;;;12.97;9.17;;;5.10;80.90;;;4.87;53.35;94379.53;5079756;28;20470;-55
2023/03/06 01:03:55;;;;;;;20.03;10.07;;;5.10;81.20;;;4.87;53.44;94379.53;5071408;28;20484;-57
2023/03/06 01:06:22;;;;;;;19.17;10.47;;;5.10;81.00;;;4.86;53.81;94375.28;5058348;28;20862;-56
2023/03/06 01:08:51;;;;;;;19.90;9.70;;;5.10;80.80;;;4.87;53.62;94378.72;5071702;28;20458;-56
2023/03/06 01:11:18;;;;;;;15.37;9.00;;;5.10;81.30;;;4.88;53.48;94378.63;5075285;28;20493;-57
2023/03/06 01:13:45;;;;;;;16.67;10.20;;;5.10;81.40;;;4.90;53.52;94370.69;5066558;28;20912;-57
2023/03/06 01:16:14;;;;;;;14.63;9.50;;;5.10;81.30;;;4.90;53.57;94376.72;5066936;28;20453;-57
2023/03/06 01:18:42;;;;;;;16.53;9.40;;;5.10;81.30;;;4.93;53.41;94370.44;5071445;28;20493;-56
2023/03/06 01:21:09;;;;;;;16.17;9.30;;;5.10;81.20;;;4.93;53.30;94358.22;5074661;28;20961;-57
2023/03/06 01:23:36;;;;;;;16.00;9.63;;;5.20;81.20;;;4.96;53.46;94365.00;5070210;28;20454;-58
2023/03/06 01:26:05;;;;;;;17.20;10.20;;;5.20;81.10;;;4.96;53.13;94370.22;5079803;28;20954;-59
2023/03/06 01:28:34;;;;;;;16.90;10.00;;;5.20;81.10;;;4.96;52.99;94370.22;5067724;28;20462;-57
2023/03/06 01:31:01;;;;;;;14.57;8.87;;;5.20;81.00;;;4.96;53.24;94376.25;5069210;28;20923;-57
2023/03/06 01:33:28;;;;;;;13.67;9.53;;;5.20;81.10;;;4.96;53.00;94373.63;5077407;28;20456;-55
2023/03/06 01:35:55;;;;;;;18.83;9.63;;;5.20;81.00;;;4.96;53.04;94381.44;5074477;28;20467;-57
2023/03/06 01:38:23;;;;;;;15.53;9.57;;;5.20;80.90;;;4.95;53.15;94371.97;5067503;28;21049;-56
2023/03/06 01:40:50;;;;;;;17.47;9.80;;;5.10;81.50;;;4.95;53.17;94363.31;5072873;28;20442;-56
2023/03/06 01:43:28;;;;;;;15.43;9.80;;;5.20;80.90;;;4.93;53.27;94368.66;5081194;28;20500;-58
2023/03/06 01:46:29;;;;;;;15.83;10.20;;;5.20;81.10;;;4.97;53.00;94358.81;5069800;28;20511;-57
2023/03/06 01:48:58;;;;;;;13.80;9.20;;;5.20;81.30;;;4.97;53.55;94362.28;5077713;28;20476;-59
2023/03/06 01:51:27;;;;;;;14.80;9.80;;;5.20;81.30;;;4.94;53.28;94370.31;5078450;28;20990;-58
2023/03/06 01:53:54;;;;;;;15.73;9.33;;;5.20;81.30;;;4.92;53.17;94364.38;5071994;28;20950;-57
2023/03/06 01:56:22;;;;;;;16.60;8.90;;;5.10;81.30;;;4.90;53.40;94366.28;5074109;28;20482;-55
2023/03/06 01:58:50;;;;;;;16.73;9.50;;;5.10;81.30;;;4.89;53.28;94367.22;5077220;28;20521;-58
2023/03/06 02:01:18;;;;;;;12.17;8.37;;;5.10;81.60;;;4.87;53.42;94370.91;5073709;28;20478;-57
2023/03/06 02:03:48;;;;;;;18.30;10.77;;;5.10;81.70;;;4.84;53.44;94369.38;5071752;28;20451;-55
2023/03/06 02:06:18;;;;;;;16.53;9.80;;;5.10;82.10;;;4.81;53.47;94367.00;5083321;28;20465;-56
2023/03/06 02:08:46;;;;;;;12.97;8.60;;;5.00;82.10;;;4.78;54.13;94367.22;5075161;28;21404;-57
2023/03/06 02:11:15;;;;;;;13.90;9.23;;;5.00;82.90;;;4.75;53.84;94365.66;5069717;28;20924;-57
2023/03/06 02:13:42;;;;;;;15.47;10.20;;;5.00;82.70;;;4.71;54.13;94366.03;5078259;28;21019;-54
2023/03/06 02:16:11;;;;;;;12.70;9.50;;;5.00;83.20;;;4.71;54.06;94371.22;5067563;28;20530;-55
2023/03/06 02:18:39;;;;;;;17.10;9.63;;;4.90;83.00;;;4.70;54.26;94367.00;5070149;28;20887;-58
2023/03/06 02:21:07;;;;;;;20.67;10.60;;;4.90;83.20;;;4.69;54.16;94366.13;5076121;28;20441;-58
2023/03/06 02:23:42;;;;;;;14.90;9.73;;;4.90;83.40;;;4.67;54.37;94370.66;5075850;28;20462;-58
2023/03/06 02:26:11;;;;;;;14.67;9.60;;;4.90;83.60;;;4.67;54.20;94365.44;5069213;28;20850;-55
2023/03/06 02:28:38;;;;;;;15.90;10.93;;;4.90;83.60;;;4.66;54.21;94367.22;5073665;28;20535;-59
2023/03/06 02:31:06;;;;;;;15.73;9.50;;;4.90;83.60;;;4.66;54.14;94375.03;5080261;28;20634;-57
2023/03/06 02:33:33;;;;;;;13.53;9.03;;;4.90;83.70;;;4.65;54.18;94372.53;5071627;28;20689;-57
2023/03/06 02:36:02;;;;;;;17.83;11.13;;;4.90;83.90;;;4.64;54.14;94370.88;5072575;28;20966;-58
2023/03/06 02:38:31;;;;;;;19.00;10.43;;;4.90;83.80;;;4.64;54.32;94376.09;5077596;28;20487;-56
2023/03/06 02:40:59;;;;;;;12.40;9.70;;;4.90;84.10;;;4.63;54.33;94374.41;5074320;28;20457;-57
2023/03/06 02:43:29;;;;;;;16.23;10.70;;;4.90;84.20;;;4.63;54.03;94377.88;5070530;28;20461;-54
2023/03/06 02:45:56;;;;;;;15.37;10.10;;;4.90;84.20;;;4.64;54.30;94383.91;5079890;28;20474;-54
2023/03/06 02:48:24;;;;;;;17.47;10.43;;;4.90;84.20;;;4.65;54.44;94375.97;5074665;28;20476;-58
2023/03/06 02:50:51;;;;;;;15.00;9.90;;;4.90;84.20;;;4.66;54.02;94376.78;5070418;28;20451;-57
2023/03/06 02:53:19;;;;;;;15.60;9.90;;;4.90;84.20;;;4.67;54.33;94371.47;5079431;28;20877;-57
2023/03/06 02:55:47;;;;;;;16.30;9.97;;;4.90;84.10;;;4.69;54.14;94373.13;5078264;28;20559;-57
2023/03/06 02:58:14;;;;;;;14.03;9.87;;;4.90;84.10;;;4.69;54.11;94373.13;5068973;28;20528;-59
2023/03/06 03:00:42;;;;;;;19.23;10.13;;;4.90;84.10;;;4.70;54.10;94377.41;5076035;28;20457;-56
2023/03/06 03:03:10;;;;;;;14.73;9.83;;;4.90;84.10;;;4.67;53.92;94370.66;5079206;28;20482;-56
2023/03/06 03:05:37;;;;;;;17.47;9.83;;;4.90;84.00;;;4.70;54.15;94377.41;5070683;28;20454;-55
2023/03/06 03:08:05;;;;;;;23.17;10.40;;;4.90;84.00;;;4.72;54.00;94375.50;5073001;28;20841;-55
2023/03/06 03:10:32;;;;;;;21.77;9.47;;;4.90;83.70;;;4.74;54.11;94373.59;5074449;28;20462;-57
2023/03/06 03:12:59;;;;;;;16.30;9.50;;;5.00;83.80;;;4.77;53.79;94374.22;5073158;28;20478;-55
2023/03/06 03:15:26;;;;;;;17.50;10.40;;;5.00;83.80;;;4.78;54.00;94377.66;5068897;28;20455;-56
2023/03/06 03:17:55;;;;;;;14.10;9.27;;;5.00;83.70;;;4.80;53.82;94381.81;5077490;28;20981;-58
2023/03/06 03:20:22;;;;;;;13.73;9.90;;;5.00;83.70;;;4.82;53.92;94376.47;5075090;28;20495;-55
2023/03/06 03:22:50;;;;;;;14.73;7.90;;;5.00;83.60;;;4.84;53.70;94378.00;5062657;28;20573;-57
2023/03/06 03:25:18;;;;;;;21.40;10.33;;;5.00;83.30;;;4.87;53.34;94383.94;5074998;28;20463;-55
2023/03/06 03:27:45;;;;;;;14.60;9.30;;;5.00;82.90;;;4.85;53.73;94379.66;5075144;28;20478;-57
2023/03/06 03:30:13;;;;;;;16.87;9.90;;;5.10;82.80;;;4.84;53.33;94380.59;5060197;28;20943;-57
2023/03/06 03:32:41;;;;;;;16.40;9.87;;;5.10;82.90;;;4.82;53.63;94381.69;5069070;28;20474;-57
2023/03/06 03:35:10;;;;;;;16.20;9.80;;;5.10;83.20;;;4.81;53.66;94373.03;5077337;28;20970;-57
2023/03/06 03:37:37;;;;;;;18.97;12.07;;;5.00;83.60;;;4.81;53.80;94382.63;5061649;28;21002;-55
2023/03/06 03:40:06;;;;;;;17.60;9.53;;;5.00;83.70;;;4.79;53.99;94385.34;5059213;28;20482;-57
2023/03/06 03:42:34;;;;;;;19.70;10.40;;;5.00;83.90;;;4.78;53.99;94388.06;5073023;28;20482;-58
2023/03/06 03:45:02;;;;;;;13.30;9.53;;;5.00;84.20;;;4.74;54.05;94382.28;5069136;28;20462;-56
2023/03/06 03:47:29;;;;;;;12.30;9.10;;;5.00;84.30;;;4.73;54.25;94387.59;5052707;28;20471;-58
2023/03/06 03:49:56;;;;;;;19.03;10.10;;;4.90;84.50;;;4.69;54.38;94389.59;5068917;28;20463;-55
2023/03/06 03:52:25;;;;;;;18.73;9.50;;;4.90;84.70;;;4.70;54.43;94390.44;5068340;28;20478;-56
2023/03/06 03:54:52;;;;;;;14.90;9.67;;;4.90;85.00;;;4.67;54.56;94386.28;5060274;28;20532;-57
2023/03/06 03:57:19;;;;;;;15.50;10.53;;;4.90;85.20;;;4.62;54.95;94394.44;5074735;28;21131;-58
2023/03/06 03:59:46;;;;;;;15.00;10.50;;;4.90;85.80;;;4.57;54.80;94393.97;5070685;28;20513;-57
2023/03/06 04:02:14;;;;;;;20.23;12.37;;;4.80;85.90;;;4.52;54.88;94393.47;5059673;28;20472;-56
2023/03/06 04:04:41;;;;;;;19.47;13.20;;;4.80;86.10;;;4.48;55.51;94402.47;5071001;28;20549;-54
2023/03/06 04:07:08;;;;;;;16.37;11.30;;;4.70;86.90;;;4.44;55.43;94399.22;5065282;28;20476;-55
2023/03/06 04:09:37;;;;;;;18.63;13.97;;;4.70;87.00;;;4.40;55.73;94394.38;5064230;28;20466;-60
2023/03/06 04:12:06;;;;;;;20.30;13.50;;;4.70;87.10;;;4.38;55.81;94398.88;5066372;28;20485;-57
2023/03/06 04:14:33;;;;;;;24.00;13.20;;;4.60;87.90;;;4.35;55.61;94386.09;5073334;28;20531;-57
2023/03/06 04:17:00;;;;;;;21.73;11.03;;;4.60;87.90;;;4.33;55.92;94387.97;5072004;28;21184;-57
2023/03/06 04:19:27;;;;;;;22.07;13.63;;;4.60;88.40;;;4.28;56.13;94396.94;5063779;28;20588;-56
2023/03/06 04:21:55;;;;;;;23.63;15.50;;;4.50;88.50;;;4.25;55.77;94393.75;5075480;28;20481;-58
2023/03/06 04:24:22;;;;;;;17.37;13.10;;;4.50;88.40;;;4.19;55.96;94392.41;5070283;28;20459;-54
2023/03/06 04:26:50;;;;;;;25.60;12.67;;;4.50;88.40;;;4.18;56.01;94395.13;5063076;28;20588;-55
2023/03/06 04:29:18;;;;;;;14.00;10.23;;;4.40;88.70;;;4.17;56.05;94399.53;5074659;28;20471;-58
2023/03/06 04:31:45;;;;;;;16.97;10.80;;;4.40;88.80;;;4.17;56.18;94396.91;5068337;28;20482;-57
2023/03/06 04:34:12;;;;;;;18.53;10.43;;;4.40;89.10;;;4.20;55.67;94399.28;5070655;28;20870;-56
2023/03/06 04:36:43;;;;;;;19.60;10.40;;;4.40;89.10;;;4.24;55.96;94405.09;5074640;28;21057;-55
2023/03/06 04:39:11;;;;;;;16.20;10.40;;;4.50;89.30;;;4.27;55.85;94408.28;5078295;28;20481;-58
2023/03/06 04:41:39;;;;;;;16.30;10.43;;;4.50;89.30;;;4.28;55.88;94409.97;5070177;28;20473;-56
2023/03/06 04:44:07;;;;;;;18.70;10.37;;;4.50;89.30;;;4.31;56.08;94403.72;5068342;28;20507;-57
2023/03/06 04:46:35;;;;;;;16.67;11.10;;;4.50;89.30;;;4.35;56.02;94401.69;5066914;28;20479;-58
2023/03/06 04:49:02;;;;;;;18.77;11.10;;;4.60;89.90;;;4.40;55.99;94412.59;5069192;28;20802;-55
2023/03/06 04:51:29;;;;;;;20.23;11.40;;;4.60;89.90;;;4.39;56.04;94403.16;5064969;28;20467;-58
2023/03/06 04:53:57;;;;;;;16.93;12.17;;;4.60;89.60;;;4.38;55.84;94411.88;5067458;28;21052;-57
2023/03/06 04:56:24;;;;;;;18.87;11.07;;;4.60;90.00;;;4.39;55.95;94410.97;5071127;28;20571;-56
2023/03/06 04:58:51;;;;;;;22.20;11.87;;;4.60;89.90;;;4.40;55.82;94404.78;5069438;28;20451;-57
2023/03/06 05:01:20;;;;;;;19.37;11.77;;;4.60;89.90;;;4.41;56.35;94406.44;5072466;28;20665;-59
2023/03/06 05:03:48;;;;;;;16.80;11.20;;;4.60;90.10;;;4.44;56.30;94411.44;5068282;28;20855;-59
2023/03/06 05:06:15;;;;;;;24.50;12.80;;;4.60;90.30;;;4.48;55.93;94418.09;5067375;28;20494;-59
2023/03/06 05:08:43;;;;;;;21.00;12.50;;;4.70;90.20;;;4.53;56.38;94410.75;5071746;28;20811;-57
2023/03/06 05:11:10;;;;;;;16.73;11.67;;;4.70;90.50;;;4.57;56.38;94412.19;5066142;28;20463;-55
2023/03/06 05:13:37;;;;;;;15.30;11.00;;;4.80;90.40;;;4.60;56.18;94411.97;5064893;28;20466;-55
2023/03/06 05:16:05;;;;;;;22.63;12.50;;;4.80;90.30;;;4.65;56.26;94414.22;5062553;28;20996;-55
2023/03/06 05:18:34;;;;;;;19.97;12.47;;;4.90;90.30;;;4.70;55.91;94411.28;5066440;28;20450;-56
2023/03/06 05:21:01;;;;;;;18.37;11.40;;;4.90;90.40;;;4.73;55.98;94409.25;5065748;28;20490;-56
2023/03/06 05:23:29;;;;;;;23.77;14.07;;;4.90;90.30;;;4.77;55.98;94402.88;5066429;28;20451;-60
2023/03/06 05:25:56;;;;;;;22.10;12.13;;;5.00;90.30;;;4.81;55.97;94414.72;5074455;28;20458;-55
2023/03/06 05:28:24;;;;;;;22.40;12.93;;;5.00;90.30;;;4.82;56.30;94418.16;5063232;28;20468;-59
2023/03/06 05:30:52;;;;;;;26.50;13.50;;;5.00;90.60;;;4.83;56.05;94414.59;5068731;28;20546;-58
2023/03/06 05:33:19;;;;;;;21.00;12.87;;;5.00;90.30;;;4.84;56.33;94422.28;5071922;28;20454;-57
2023/03/06 05:35:48;;;;;;;26.73;13.40;;;5.10;90.40;;;4.86;56.04;94416.97;5065555;28;20829;-55
2023/03/06 05:38:15;;;;;;;25.37;13.47;;;5.10;90.30;;;4.87;55.40;94416.03;5066905;28;20480;-56
2023/03/06 05:40:43;;;;;;;27.23;11.67;;;5.10;90.10;;;4.88;55.77;94420.31;5070639;28;20492;-57
2023/03/06 05:43:10;;;;;;;24.40;11.40;;;5.10;90.10;;;4.88;55.44;94416.84;5075117;28;20842;-55
2023/03/06 05:45:38;;;;;;;26.83;12.27;;;5.10;90.10;;;4.87;55.62;94418.63;5074075;28;20474;-56
2023/03/06 05:48:05;;;;;;;18.70;10.50;;;5.10;90.00;;;4.89;56.01;94429.75;5059608;28;20481;-60
2023/03/06 05:50:33;;;;;;;16.83;10.50;;;5.10;90.10;;;4.92;55.23;94434.75;5074104;28;20458;-58
2023/03/06 05:53:01;;;;;;;29.50;10.93;;;5.10;89.70;;;4.95;55.44;94439.72;5070291;28;20486;-57
2023/03/06 05:55:29;;;;;;;21.40;10.37;;;5.20;89.80;;;4.98;55.54;94433.44;5066554;28;20827;-58
2023/03/06 05:57:56;;;;;;;14.73;9.60;;;5.20;89.80;;;5.05;55.02;94437.25;5074765;28;20471;-57
2023/03/06 06:00:24;;;;;;;16.00;10.47;;;5.20;88.90;;;5.11;54.88;94443.75;5070687;28;21033;-58
2023/03/06 06:02:51;;;;;;;16.40;9.23;;;5.30;88.60;;;5.17;54.52;94451.97;5065908;28;20566;-57
2023/03/06 06:05:19;;;;;;;19.93;10.27;;;5.30;88.00;;;5.28;54.60;94442.47;5069669;28;20471;-57
2023/03/06 06:07:46;;;;;;;18.23;10.30;;;5.40;88.10;;;5.44;53.99;94447.31;5067079;28;21035;-56
2023/03/06 06:10:14;;;;;;;21.23;9.50;;;5.60;88.20;;;5.61;53.63;94446.00;5064152;28;20528;-54
2023/03/06 06:12:42;;;;;;;17.30;10.43;;;5.70;87.90;;;5.86;53.65;94437.09;5061204;28;20572;-60
2023/03/06 06:15:10;;;;;;;16.40;10.13;;;5.90;87.50;;;6.17;53.28;94445.13;5076980;28;20450;-57
2023/03/06 06:17:37;;;;;;;18.60;11.20;;;6.20;87.20;;;6.44;52.50;94453.34;5068027;28;21025;-55
2023/03/06 06:20:05;;;;;;;16.40;10.07;;;6.40;86.00;;;6.74;52.33;94450.91;5066923;28;20512;-58
2023/03/06 06:22:35;;;;;;;21.80;10.60;;;6.70;85.20;;;7.05;51.35;94461.44;5080496;28;20466;-59
2023/03/06 06:25:02;;;;;;;17.00;10.60;;;7.00;84.50;;;7.33;50.75;94452.94;5073121;28;20451;-58
2023/03/06 06:27:31;;;;;;;17.20;11.23;;;7.30;83.00;;;7.58;50.76;94460.47;5065897;28;20491;-57
2023/03/06 06:29:58;;;;;;;18.97;11.27;;;7.60;82.00;;;7.77;49.88;94455.31;5076950;28;20898;-58
2023/03/06 06:32:25;;;;;;;21.63;11.47;;;7.80;80.50;;;8.03;49.29;94457.44;5071033;28;21296;-59
2023/03/06 06:34:53;;;;;;;18.50;10.73;;;8.00;78.50;;;8.32;49.11;94465.38;5063931;28;20513;-56
2023/03/06 06:37:20;;;;;;;18.40;11.80;;;8.30;78.80;;;8.70;48.52;94461.13;5070866;28;20491;-56
2023/03/06 06:39:47;;;;;;;16.43;11.33;;;8.60;78.30;;;9.05;47.63;94457.09;5072046;28;20487;-58
2023/03/06 06:42:15;;;;;;;19.30;9.80;;;8.90;75.60;;;9.42;47.32;94461.56;5070542;28;20475;-56
2023/03/06 06:44:43;;;;;;;17.20;11.90;;;9.30;75.80;;;9.78;46.62;94466.97;5075771;28;20454;-55
2023/03/06 06:47:11;;;;;;;19.40;11.50;;;9.70;73.90;;;10.16;46.76;94473.00;5065661;28;20480;-58
2023/03/06 06:49:38;;;;;;;15.30;11.00;;;10.00;73.20;;;10.59;45.31;94466.22;5058516;28;20452;-56
2023/03/06 06:52:06;;;;;;;17.60;11.13;;;10.40;70.50;;;11.02;45.27;94463.00;5070642;28;20482;-55
2023/03/06 06:54:33;;;;;;;24.40;11.00;;;10.90;70.20;;;11.41;44.33;94455.53;5072480;28;20482;-56
2023/03/06 06:57:00;;;;;;;18.73;10.90;;;11.30;68.40;;;11.80;43.74;94459.53;5069954;28;20493;-57
2023/03/06 06:59:27;;;;;;;21.23;10.07;;;11.60;67.50;;;12.17;43.27;94467.09;5064295;28;20470;-59
2023/03/06 07:01:56;;;;;;;12.73;8.90;;;12.00;65.80;;;12.53;42.08;94472.19;5067772;28;20552;-55
2023/03/06 07:04:23;;;;;;;15.57;10.07;;;12.40;63.60;;;12.88;42.17;94475.50;5073770;28;21060;-56
2023/03/06 07:06:51;;;;;;;14.67;10.47;;;12.70;63.50;;;13.24;41.02;94469.09;5067700;28;20495;-58
2023/03/06 07:09:18;;;;;;;17.60;9.77;;;13.00;61.40;;;13.61;39.98;94471.22;5073985;28;20844;-59
2023/03/06 07:11:46;;;;;;;17.17;10.30;;;13.40;59.80;;;13.97;40.97;94475.25;5064263;28;20510;-59
2023/03/06 07:14:13;;;;;;;21.10;10.10;;;13.70;60.90;;;14.40;40.74;94469.63;5060710;28;20676;-57
2023/03/06 07:16:40;;;;;;;17.53;11.10;;;14.10;60.70;;;14.89;41.02;94472.03;5066171;28;20475;-55
2023/03/06 07:19:09;;;;;;;23.03;11.10;;;14.50;61.80;;;15.37;39.63;94467.31;5080396;28;20457;-58
2023/03/06 07:21:36;;;;;;;19.50;10.30;;;15.00;59.40;;;15.87;40.60;94466.88;5069391;28;20520;-57
2023/03/06 07:24:04;;;;;;;14.40;8.57;;;15.50;61.00;;;16.34;39.16;94478.91;5065457;28;20470;-58
2023/03/06 07:26:31;;;;;;;13.70;9.33;;;15.90;58.80;;;16.74;38.74;94474.09;5073264;28;20478;-59
2023/03/06 07:28:58;;;;;;;18.73;8.97;;;16.40;57.20;;;17.16;39.18;94472.50;5065806;28;20455;-58
2023/03/06 07:31:27;;;;;;;12.37;9.33;;;16.80;57.50;;;17.60;37.92;94469.78;5059706;28;20563;-58
2023/03/06 07:33:54;;;;;;;20.27;9.80;;;17.20;57.20;;;18.02;34.99;94476.88;5079451;28;20451;-59
2023/03/06 07:36:23;;;;;;;14.57;9.80;;;17.60;53.00;;;18.38;35.02;94464.38;5073657;28;20869;-58
2023/03/06 07:38:51;;;;;;;9.17;7.03;;;18.00;50.00;;;18.67;32.24;94468.56;5070223;28;20457;-57
2023/03/06 07:41:19;;;;;;;10.00;7.67;;;18.40;47.50;;;19.01;33.17;94458.03;5075463;28;20490;-60
2023/03/06 07:43:46;;;;;;;16.13;8.40;;;18.80;47.70;;;19.26;28.70;94463.63;5074583;28;20447;-57
2023/03/06 07:46:14;;;;;;;12.30;8.47;;;19.20;42.90;;;19.40;30.90;94467.94;5071352;28;21226;-58
2023/03/06 07:48:41;;;;;;;12.10;8.37;;;19.40;44.10;;;19.62;31.60;94470.41;5067967;28;20450;-56
2023/03/06 07:51:12;;;;;;;10.77;9.10;;;19.70;44.70;;;19.92;31.90;94470.00;5076510;28;20662;-56
2023/03/06 07:53:40;;;;;;;13.63;8.13;;;20.00;46.00;;;20.10;27.74;94472.03;5069728;28;20549;-58
2023/03/06 07:56:09;;;;;;;21.70;9.00;;;20.20;41.50;;;20.18;29.54;94475.28;5066190;28;20462;-57
2023/03/06 07:58:37;;;;;;;12.10;8.87;;;20.30;41.70;;;20.33;30.69;94472.38;5072477;28;20454;-58
2023/03/06 08:01:05;;;;;;;11.40;8.13;;;20.50;43.10;;;20.55;29.89;94466.75;5068695;28;20572;-58
2023/03/06 08:03:32;;;;;;;9.67;8.23;;;20.70;42.30;;;20.62;26.44;94462.19;5062749;28;20466;-57
2023/03/06 08:06:08;;;;;;;12.30;9.03;;;20.80;38.00;;;20.70;30.13;94472.66;5076021;28;20472;-55
2023/03/06 08:08:35;;;;;;;12.80;8.50;;;20.90;42.00;;;20.87;29.87;94466.84;5072232;28;20446;-57
2023/03/06 08:11:04;;;;;;;11.50;7.60;;;21.10;42.60;;;20.88;27.57;94468.47;5066952;28;20465;-57
2023/03/06 08:13:32;;;;;;;13.67;9.03;;;21.10;40.20;;;20.99;28.44;94472.31;5073966;28;20840;-57
2023/03/06 08:15:59;;;;;;;15.03;8.93;;;21.10;39.90;;;21.13;29.36;94476.53;5064122;28;20463;-56
2023/03/06 08:18:27;;;;;;;12.27;9.53;;;21.10;41.40;;;21.34;27.96;94467.38;5068023;28;20553;-59
2023/03/06 08:21:02;;;;;;;14.47;9.10;;;21.30;40.10;;;21.56;28.51;94467.03;5066168;28;20501;-58
2023/03/06 08:23:30;;;;;;;16.13;9.17;;;21.50;41.50;;;21.64;28.89;94472.09;5074965;28;20592;-58
2023/03/06 08:25:58;;;;;;;11.17;8.90;;;21.60;41.20;;;21.70;28.76;94463.19;5070284;28;20443;-55
2023/03/06 08:28:27;;;;;;;17.90;10.80;;;21.60;40.60;;;21.86;26.38;94467.19;5069182;28;21195;-59
2023/03/06 08:30:54;;;;;;;13.93;9.60;;;21.70;38.20;;;21.97;27.91;94465.66;5071004;28;20459;-57
2023/03/06 08:33:22;;;;;;;13.43;9.23;;;21.90;39.40;;;22.10;25.69;94456.66;5065663;28;20455;-55
2023/03/06 08:35:49;;;;;;;17.20;10.73;;;22.00;38.10;;;22.18;26.94;94462.56;5067434;28;20466;-56
2023/03/06 08:38:16;;;;;;;16.57;10.80;;;22.10;38.40;;;22.25;27.07;94473.22;5078351;28;20475;-58
2023/03/06 08:40:43;;;;;;;16.70;10.63;;;22.10;38.80;;;22.32;26.53;94467.78;5070329;28;20552;-58
2023/03/06 08:43:11;;;;;;;14.23;10.03;;;22.10;37.60;;;22.40;27.05;94454.09;5062655;28;20478;-57
2023/03/06 08:45:39;;;;;;;21.27;10.47;;;22.20;38.50;;;22.54;27.44;94466.31;5069721;28;20459;-56
2023/03/06 08:48:07;;;;;;;15.80;10.63;;;22.30;38.80;;;22.71;26.00;94460.34;5070193;28;20482;-57
2023/03/06 08:50:34;;;;;;;15.73;10.37;;;22.50;37.60;;;22.79;27.13;94470.75;5068512;28;20439;-59
2023/03/06 08:53:01;;;;;;;12.70;10.20;;;22.60;38.20;;;22.91;26.44;94470.81;5073941;28;20531;-56
2023/03/06 08:55:28;;;;;;;19.37;11.43;;;22.70;38.00;;;23.05;26.52;94453.50;5073730;28;20970;-59
2023/03/06 08:57:57;;;;;;;22.13;11.60;;;22.80;38.40;;;23.14;26.00;94459.38;5070277;28;20555;-59
2023/03/06 09:00:24;;;;;;;15.60;10.97;;;22.90;39.00;;;23.12;26.31;94458.78;5068107;28;20447;-55
2023/03/06 09:02:53;;;;;;;15.70;10.47;;;22.90;38.40;;;23.08;25.97;94449.53;5070986;28;20471;-57
2023/03/06 09:05:21;;;;;;;21.93;12.20;;;22.80;37.80;;;23.20;25.36;94455.78;5072020;28;20557;-57
2023/03/06 09:07:48;;;;;;;13.60;10.53;;;22.90;36.50;;;23.32;25.64;94444.28;5066107;28;20462;-58
2023/03/06 09:10:24;;;;;;;17.20;11.07;;;23.00;36.50;;;23.48;25.23;94437.44;5072340;28;20470;-59
2023/03/06 09:12:52;;;;;;;20.47;10.77;;;23.10;36.80;;;23.68;26.15;94448.66;5070414;28;20564;-56
2023/03/06 09:15:23;;;;;;;19.30;11.03;;;23.30;37.10;;;23.88;25.79;94440.28;5067091;28;20451;-58
2023/03/06 09:17:52;;;;;;;15.00;10.43;;;23.50;37.90;;;24.03;25.37;94441.69;5070430;28;20481;-55
2023/03/06 09:20:25;;;;;;;16.80;10.97;;;23.70;37.40;;;24.09;26.10;94436.22;5067070;28;21149;-59
2023/03/06 09:22:55;;;;;;;14.20;10.63;;;23.70;37.40;;;24.14;25.91;94440.88;5056638;28;20475;-56
2023/03/06 09:25:23;;;;;;;11.87;10.37;;;23.80;36.90;;;24.22;24.64;94435.13;5069625;28;20451;-57
2023/03/06 09:27:53;;;;;;;23.37;9.73;;;23.90;35.80;;;24.21;24.96;94430.81;5073858;28;20467;-56
2023/03/06 09:30:21;;;;;;;20.57;11.37;;;24.00;36.30;;;23.84;24.86;94431.06;5064862;28;20462;-56
2023/03/06 09:32:54;;;;;;;19.80;12.00;;;23.70;35.70;;;23.21;25.25;94421.75;5067890;28;20476;-57
2023/03/06 09:35:24;;;;;;;23.27;11.80;;;23.20;36.30;;;22.82;26.58;94431.94;5075735;28;21065;-56
2023/03/06 09:38:03;;;;;;;21.83;11.33;;;22.70;37.00;;;22.49;26.25;94425.94;5068975;28;20887;-57
2023/03/06 09:40:42;;;;;;;20.90;12.00;;;22.40;37.30;;;22.12;25.91;94431.31;5066204;28;21057;-59
2023/03/06 09:43:13;;;;;;;20.40;11.53;;;22.00;37.30;;;21.57;26.97;94434.69;5077193;28;20480;-58
2023/03/06 09:45:44;;;;;;;25.20;12.03;;;21.60;36.90;;;20.94;27.38;94425.69;5071011;28;20451;-59
2023/03/06 09:48:13;;;;;;;18.37;11.10;;;21.00;37.80;;;20.56;27.88;94422.97;5066879;28;20533;-59
2023/03/06 09:50:46;;;;;;;20.03;11.53;;;20.70;38.50;;;20.53;28.28;94424.19;5079581;28;20454;-58
2023/03/06 09:53:32;;;;;;;23.83;12.90;;;20.50;38.90;;;20.60;27.96;94416.16;5067808;28;20493;-59
2023/03/06 09:56:01;;;;;;;16.37;12.20;;;20.50;39.20;;;20.66;28.22;94417.19;5070596;28;20542;-56
2023/03/06 09:58:30;;;;;;;18.50;11.30;;;20.50;39.10;;;20.72;28.55;94408.31;5080069;28;20533;-58
2023/03/06 10:01:01;;;;;;;15.47;10.00;;;20.50;39.50;;;20.91;27.91;94414.56;5074328;28;20482;-57
2023/03/06 10:03:31;;;;;;;13.00;9.63;;;20.60;39.30;;;21.06;28.12;94409.75;5055899;28;21011;-59
2023/03/06 10:06:05;;;;;;;14.23;8.90;;;20.70;39.50;;;21.33;27.46;94406.88;5070156;28;20995;-59
2023/03/06 10:08:41;;;;;;;16.20;10.00;;;20.90;38.60;;;21.59;26.40;94411.22;5070702;28;20447;-58
2023/03/06 10:11:10;;;;;;;17.13;10.13;;;21.10;38.50;;;21.63;27.59;94396.34;5056505;28;20970;-58
2023/03/06 10:13:40;;;;;;;19.83;10.10;;;21.20;38.90;;;21.49;27.20;94406.34;5075878;28;21008;-56
2023/03/06 10:16:18;;;;;;;17.00;10.60;;;21.20;38.70;;;21.09;26.91;94406.63;5071740;28;20447;-58
2023/03/06 10:18:45;;;;;;;14.77;9.47;;;20.90;38.10;;;20.72;28.10;94401.09;5062211;28;20457;-57
2023/03/06 10:21:30;;;;;;;18.97;10.30;;;20.70;38.50;;;20.57;28.21;94403.22;5071421;28;20493;-56